Terminal Aerodrome Forecast
Issued by NWS

Home | Current Version | Previous Version | Graphics & Text | Print | Product List | Glossary On
Versions: 1 2 3 4 5 6 7 8 9 10 11 12 13 14 15 16 17 18 19 20 21 22 23 24 25 26 27 28 29 30 31 32 33 34
136
FTUS45 KGGW 221524 AAA
TAFOLF
TAF AMD
KOLF 221524Z 2215/2312 03010KT 4SM -SN SCT010 OVC015
      TEMPO 2215/2217 SCT015 OVC030
     FM222000 04007KT P6SM BKN025 OVC035
     FM230500 VRB03KT P6SM OVC040=

USA.gov is the U.S. government's official web portal to all federal, state and local government web resources and services.